Franklin, GA (30217)

4:02 PM EDT on August 31, 2015 (GMT -0400)
Powers Crossroads | | Change Station
CLOSE
Current Station
Personal Weather Station
Location: Newnan, GA
Elevation: 815 ft
Nearby Weather Stations

Elev 815 ft 33.34 °N, 84.97 °W | Updated 39 seconds ago

Mostly Cloudy
Mostly Cloudy
82.9 °F
Feels Like 90 °F
N
0.0
Wind Variable Wind from NNW
Gusts 0.0 mph

Today
High -- | Low -- °F
--% Chance of Precip.
Yesterday
High -- | Low -- °F
Precip. -- in
7:13 AM 8:07 PM
Waning Gibbous, 94% visible
Pressure 30.09 in
Visibility 10.0 miles
Clouds Scattered Clouds 3300 ft
Overcast 6000 ft
Heat Index 90 °F
Dew Point 75 °F
Humidity 77%
Rainfall in
Snow Depth Not available.
UV 3 out of 12
Pollen 7.20 out of 12
Air Quality Not available.
Flu Activity Not available.
METAR KLGC 311935Z AUTO 00000KT 10SM SCT033 OVC060 30/24 A3009 RMK AO2 T02970235
Pressure 30.09 in
Visibility 10.0 miles
Clouds Scattered Clouds 3300 ft
Overcast 6000 ft
Heat Index 90 °F
Dew Point 75 °F
Humidity 77%
Rainfall in
Snow Depth Not available.
UV 3 out of 12
Pollen 7.20 out of 12
Air Quality Not available.
Flu Activity Not available.
METAR KLGC 311935Z AUTO 00000KT 10SM SCT033 OVC060 30/24 A3009 RMK AO2 T02970235

10-Day Weather Forecast

×

Almanac

Astronomy

Aug. 31, 2015 Rise Set
Actual Time
Civil Twilight
Nautical Twilight
Astronomical Twilight
Moon
Length of Visible Light
Length of Day
Tomorrow will be .
, % of the Moon is Illuminated

Today's Extremes

State Highs State Lows

Community

WunderPhotos

Upload Photos

1,851,351 photos uploaded!

WunderBlogs® & News

Nearby

Air Quality

  Air Quality AQ Index Pollutant
Not available.

Snow Depth

Station Depth Elevation

Earthquake Activity

City Distance Mag. Time & Date
Minimum magnitude displayed is 2.5.

Coastal Water Temperatures

Place Temperature

Stations

Nearby Weather Stations

Station Location Temp. Windchill Dew Point Humidity Wind Precip. Elev Updated Type